sensor_id;sensor_type;location;lat;lon;timestamp;noise_LAeq;noise_LA_min;noise_LA_max;noise_LA01;noise_LA95
45964;Laerm;31671;48.092;11.842;2023-09-19T00:00:46;32.61;28.05;46.10;;
45964;Laerm;31671;48.092;11.842;2023-09-19T00:03:12;31.31;28.22;43.79;;
45964;Laerm;31671;48.092;11.842;2023-09-19T00:05:38;31.77;28.17;45.89;;
45964;Laerm;31671;48.092;11.842;2023-09-19T00:08:04;34.93;27.90;47.24;;
45964;Laerm;31671;48.092;11.842;2023-09-19T00:10:31;36.38;28.19;47.58;;
45964;Laerm;31671;48.092;11.842;2023-09-19T00:12:57;34.70;28.14;46.12;;
45964;Laerm;31671;48.092;11.842;2023-09-19T00:15:23;36.71;28.19;48.74;;
45964;Laerm;31671;48.092;11.842;2023-09-19T00:17:49;36.86;28.18;47.04;;
45964;Laerm;31671;48.092;11.842;2023-09-19T00:20:15;34.83;28.04;47.74;;
45964;Laerm;31671;48.092;11.842;2023-09-19T00:22:41;32.20;27.75;44.69;;
45964;Laerm;31671;48.092;11.842;2023-09-19T00:25:06;34.70;27.81;48.62;;
45964;Laerm;31671;48.092;11.842;2023-09-19T00:27:32;35.76;27.61;48.36;;
45964;Laerm;31671;48.092;11.842;2023-09-19T00:29:58;30.76;27.54;47.38;;
45964;Laerm;31671;48.092;11.842;2023-09-19T00:32:23;30.21;28.20;45.38;;
45964;Laerm;31671;48.092;11.842;2023-09-19T00:34:49;30.77;28.00;42.96;;
45964;Laerm;31671;48.092;11.842;2023-09-19T00:37:15;29.97;27.87;40.46;;
45964;Laerm;31671;48.092;11.842;2023-09-19T00:39:41;29.66;27.96;41.57;;
45964;Laerm;31671;48.092;11.842;2023-09-19T00:42:06;30.17;27.95;41.55;;
45964;Laerm;31671;48.092;11.842;2023-09-19T00:44:32;30.12;27.82;46.43;;
45964;Laerm;31671;48.092;11.842;2023-09-19T00:46:58;30.47;27.75;44.18;;
45964;Laerm;31671;48.092;11.842;2023-09-19T00:49:23;31.69;27.86;47.29;;
45964;Laerm;31671;48.092;11.842;2023-09-19T00:51:49;31.64;27.89;44.61;;
45964;Laerm;31671;48.092;11.842;2023-09-19T00:54:15;31.42;28.00;44.20;;
45964;Laerm;31671;48.092;11.842;2023-09-19T00:56:41;32.90;27.87;45.47;;
45964;Laerm;31671;48.092;11.842;2023-09-19T00:59:07;30.72;27.99;48.08;;
45964;Laerm;31671;48.092;11.842;2023-09-19T01:01:33;31.81;27.67;45.90;;
45964;Laerm;31671;48.092;11.842;2023-09-19T01:03:58;29.88;27.69;45.25;;
45964;Laerm;31671;48.092;11.842;2023-09-19T01:06:24;29.99;27.93;43.85;;
45964;Laerm;31671;48.092;11.842;2023-09-19T01:08:50;30.57;27.68;46.16;;
45964;Laerm;31671;48.092;11.842;2023-09-19T01:11:22;29.70;27.87;44.45;;
45964;Laerm;31671;48.092;11.842;2023-09-19T01:13:55;29.59;27.82;44.32;;
45964;Laerm;31671;48.092;11.842;2023-09-19T01:16:32;29.51;27.49;38.47;;
45964;Laerm;31671;48.092;11.842;2023-09-19T01:19:20;29.77;27.89;44.87;;
45964;Laerm;31671;48.092;11.842;2023-09-19T01:22:07;29.63;27.80;41.37;;
45964;Laerm;31671;48.092;11.842;2023-09-19T01:27:17;30.12;27.93;40.17;;
45964;Laerm;31671;48.092;11.842;2023-09-19T01:29:49;29.58;28.02;35.79;;
45964;Laerm;31671;48.092;11.842;2023-09-19T01:32:18;29.73;27.88;38.62;;
45964;Laerm;31671;48.092;11.842;2023-09-19T01:34:45;29.87;28.16;35.28;;
45964;Laerm;31671;48.092;11.842;2023-09-19T01:37:10;29.98;28.08;35.19;;
45964;Laerm;31671;48.092;11.842;2023-09-19T01:39:36;29.96;27.89;36.10;;
45964;Laerm;31671;48.092;11.842;2023-09-19T01:42:12;30.33;27.94;43.02;;
45964;Laerm;31671;48.092;11.842;2023-09-19T01:47:10;30.30;27.96;36.14;;
45964;Laerm;31671;48.092;11.842;2023-09-19T01:49:50;30.24;27.98;36.94;;
45964;Laerm;31671;48.092;11.842;2023-09-19T01:52:20;30.21;28.13;37.78;;
45964;Laerm;31671;48.092;11.842;2023-09-19T01:54:48;29.83;27.71;34.94;;
45964;Laerm;31671;48.092;11.842;2023-09-19T01:57:41;30.03;27.91;36.44;;
45964;Laerm;31671;48.092;11.842;2023-09-19T02:00:03;29.93;28.03;38.55;;
45964;Laerm;31671;48.092;11.842;2023-09-19T02:02:40;30.33;28.11;35.45;;
45964;Laerm;31671;48.092;11.842;2023-09-19T02:05:07;29.72;28.14;33.40;;
45964;Laerm;31671;48.092;11.842;2023-09-19T02:07:33;29.66;28.00;34.41;;
45964;Laerm;31671;48.092;11.842;2023-09-19T02:09:59;29.78;27.35;36.64;;
45964;Laerm;31671;48.092;11.842;2023-09-19T02:12:25;29.69;27.67;35.33;;
45964;Laerm;31671;48.092;11.842;2023-09-19T02:14:50;30.57;28.04;37.62;;
45964;Laerm;31671;48.092;11.842;2023-09-19T02:17:16;29.60;27.93;36.66;;
45964;Laerm;31671;48.092;11.842;2023-09-19T02:19:42;29.97;27.99;42.40;;
45964;Laerm;31671;48.092;11.842;2023-09-19T02:22:08;30.17;27.52;43.12;;
45964;Laerm;31671;48.092;11.842;2023-09-19T02:24:33;30.24;27.85;47.65;;
45964;Laerm;31671;48.092;11.842;2023-09-19T02:26:59;29.58;27.81;44.52;;
45964;Laerm;31671;48.092;11.842;2023-09-19T02:29:25;29.55;27.95;43.04;;
45964;Laerm;31671;48.092;11.842;2023-09-19T02:31:51;29.48;27.68;37.62;;
45964;Laerm;31671;48.092;11.842;2023-09-19T02:34:16;29.46;27.78;33.62;;
45964;Laerm;31671;48.092;11.842;2023-09-19T02:36:42;29.37;27.83;35.01;;
45964;Laerm;31671;48.092;11.842;2023-09-19T02:39:08;30.17;27.99;35.98;;
45964;Laerm;31671;48.092;11.842;2023-09-19T02:41:34;29.81;27.58;33.63;;
45964;Laerm;31671;48.092;11.842;2023-09-19T02:44:00;29.54;27.88;33.26;;
45964;Laerm;31671;48.092;11.842;2023-09-19T02:46:26;29.45;27.80;35.36;;
45964;Laerm;31671;48.092;11.842;2023-09-19T02:48:52;29.32;27.73;35.94;;
45964;Laerm;31671;48.092;11.842;2023-09-19T02:51:18;29.30;27.82;31.98;;
45964;Laerm;31671;48.092;11.842;2023-09-19T02:53:44;29.50;27.77;33.16;;
45964;Laerm;31671;48.092;11.842;2023-09-19T02:56:09;29.84;27.70;33.47;;
45964;Laerm;31671;48.092;11.842;2023-09-19T02:58:35;29.38;27.74;33.75;;
45964;Laerm;31671;48.092;11.842;2023-09-19T03:01:07;29.41;27.86;32.26;;
45964;Laerm;31671;48.092;11.842;2023-09-19T03:03:33;29.40;27.77;32.58;;
45964;Laerm;31671;48.092;11.842;2023-09-19T03:05:59;29.76;28.01;38.10;;
45964;Laerm;31671;48.092;11.842;2023-09-19T03:08:25;29.27;27.72;33.18;;
45964;Laerm;31671;48.092;11.842;2023-09-19T03:10:51;29.35;27.65;36.28;;
45964;Laerm;31671;48.092;11.842;2023-09-19T03:13:17;29.42;27.73;45.53;;
45964;Laerm;31671;48.092;11.842;2023-09-19T03:15:43;29.31;27.88;37.65;;
45964;Laerm;31671;48.092;11.842;2023-09-19T03:18:08;29.24;27.88;31.16;;
45964;Laerm;31671;48.092;11.842;2023-09-19T03:20:34;29.73;27.90;34.60;;
45964;Laerm;31671;48.092;11.842;2023-09-19T03:23:00;29.37;27.90;37.93;;
45964;Laerm;31671;48.092;11.842;2023-09-19T03:25:26;29.30;27.66;37.38;;
45964;Laerm;31671;48.092;11.842;2023-09-19T03:27:52;29.36;27.81;33.83;;
45964;Laerm;31671;48.092;11.842;2023-09-19T03:30:18;29.83;28.00;35.19;;
45964;Laerm;31671;48.092;11.842;2023-09-19T03:32:45;29.79;27.70;34.84;;
45964;Laerm;31671;48.092;11.842;2023-09-19T03:35:11;29.73;27.71;38.82;;
45964;Laerm;31671;48.092;11.842;2023-09-19T03:37:36;29.47;27.98;32.06;;
45964;Laerm;31671;48.092;11.842;2023-09-19T03:40:02;29.53;27.60;39.57;;
45964;Laerm;31671;48.092;11.842;2023-09-19T03:42:29;29.59;27.96;34.59;;
45964;Laerm;31671;48.092;11.842;2023-09-19T03:44:54;29.93;27.98;36.76;;
45964;Laerm;31671;48.092;11.842;2023-09-19T03:47:20;30.03;27.70;46.03;;
45964;Laerm;31671;48.092;11.842;2023-09-19T03:49:46;29.78;27.97;34.86;;
45964;Laerm;31671;48.092;11.842;2023-09-19T03:52:12;29.83;27.56;34.09;;
45964;Laerm;31671;48.092;11.842;2023-09-19T03:54:37;30.18;27.74;36.01;;
45964;Laerm;31671;48.092;11.842;2023-09-19T03:57:03;29.80;27.98;37.04;;
45964;Laerm;31671;48.092;11.842;2023-09-19T03:59:29;29.91;27.80;34.66;;
45964;Laerm;31671;48.092;11.842;2023-09-19T04:01:54;29.97;28.01;36.14;;
45964;Laerm;31671;48.092;11.842;2023-09-19T04:04:21;30.92;27.95;38.54;;
45964;Laerm;31671;48.092;11.842;2023-09-19T04:06:47;29.82;27.87;37.09;;
45964;Laerm;31671;48.092;11.842;2023-09-19T04:09:13;29.76;27.99;35.78;;
45964;Laerm;31671;48.092;11.842;2023-09-19T04:11:38;30.70;28.15;36.19;;
45964;Laerm;31671;48.092;11.842;2023-09-19T04:14:04;31.02;28.35;37.19;;
45964;Laerm;31671;48.092;11.842;2023-09-19T04:16:30;29.92;28.00;35.60;;
45964;Laerm;31671;48.092;11.842;2023-09-19T04:18:56;29.55;27.91;36.81;;
45964;Laerm;31671;48.092;11.842;2023-09-19T04:21:21;29.98;27.82;40.37;;
45964;Laerm;31671;48.092;11.842;2023-09-19T04:23:47;30.13;28.09;35.22;;
45964;Laerm;31671;48.092;11.842;2023-09-19T04:26:13;29.90;27.85;37.95;;
45964;Laerm;31671;48.092;11.842;2023-09-19T04:28:39;30.17;27.85;36.45;;
45964;Laerm;31671;48.092;11.842;2023-09-19T04:31:05;29.82;27.90;35.58;;
45964;Laerm;31671;48.092;11.842;2023-09-19T04:33:30;29.47;28.13;34.11;;
45964;Laerm;31671;48.092;11.842;2023-09-19T04:35:56;29.46;27.63;40.77;;
45964;Laerm;31671;48.092;11.842;2023-09-19T04:38:22;29.50;27.80;36.81;;
45964;Laerm;31671;48.092;11.842;2023-09-19T04:40:48;30.39;28.18;40.52;;
45964;Laerm;31671;48.092;11.842;2023-09-19T04:43:14;30.06;27.66;41.36;;
45964;Laerm;31671;48.092;11.842;2023-09-19T04:45:39;30.45;27.87;41.32;;
45964;Laerm;31671;48.092;11.842;2023-09-19T04:48:05;31.35;28.04;44.41;;
45964;Laerm;31671;48.092;11.842;2023-09-19T04:50:31;30.82;27.85;42.55;;
45964;Laerm;31671;48.092;11.842;2023-09-19T04:52:57;30.24;28.03;42.71;;
45964;Laerm;31671;48.092;11.842;2023-09-19T04:55:22;30.18;27.80;38.10;;
45964;Laerm;31671;48.092;11.842;2023-09-19T04:57:51;29.68;27.87;35.94;;
45964;Laerm;31671;48.092;11.842;2023-09-19T05:00:17;29.72;28.12;35.08;;
45964;Laerm;31671;48.092;11.842;2023-09-19T05:02:43;29.81;27.98;36.02;;
45964;Laerm;31671;48.092;11.842;2023-09-19T05:05:09;29.55;27.75;36.32;;
45964;Laerm;31671;48.092;11.842;2023-09-19T05:07:35;29.88;27.83;35.77;;
45964;Laerm;31671;48.092;11.842;2023-09-19T05:10:01;30.53;28.28;37.01;;
45964;Laerm;31671;48.092;11.842;2023-09-19T05:12:26;29.93;27.97;44.31;;
45964;Laerm;31671;48.092;11.842;2023-09-19T05:14:52;29.85;27.66;41.74;;
45964;Laerm;31671;48.092;11.842;2023-09-19T05:17:18;29.78;27.85;37.66;;
45964;Laerm;31671;48.092;11.842;2023-09-19T05:19:44;30.08;27.74;35.74;;
45964;Laerm;31671;48.092;11.842;2023-09-19T05:22:09;29.80;27.91;40.32;;
45964;Laerm;31671;48.092;11.842;2023-09-19T05:24:35;29.60;27.95;34.60;;
45964;Laerm;31671;48.092;11.842;2023-09-19T05:27:01;29.42;27.51;34.63;;
45964;Laerm;31671;48.092;11.842;2023-09-19T05:29:26;30.06;27.87;42.67;;
45964;Laerm;31671;48.092;11.842;2023-09-19T05:31:52;31.01;27.79;43.52;;
45964;Laerm;31671;48.092;11.842;2023-09-19T05:34:17;29.54;27.88;34.73;;
45964;Laerm;31671;48.092;11.842;2023-09-19T05:36:43;29.37;27.82;37.73;;
45964;Laerm;31671;48.092;11.842;2023-09-19T05:39:09;29.28;27.77;31.39;;
45964;Laerm;31671;48.092;11.842;2023-09-19T05:41:35;29.35;27.87;36.44;;
45964;Laerm;31671;48.092;11.842;2023-09-19T05:44:01;29.36;28.03;35.94;;
45964;Laerm;31671;48.092;11.842;2023-09-19T05:46:26;29.37;27.98;31.13;;
45964;Laerm;31671;48.092;11.842;2023-09-19T05:48:53;29.50;27.96;33.29;;
45964;Laerm;31671;48.092;11.842;2023-09-19T05:51:18;30.22;28.05;42.71;;
45964;Laerm;31671;48.092;11.842;2023-09-19T05:53:44;29.63;28.01;39.59;;
45964;Laerm;31671;48.092;11.842;2023-09-19T05:56:10;29.65;28.05;36.13;;
45964;Laerm;31671;48.092;11.842;2023-09-19T05:58:35;29.76;27.61;40.43;;
45964;Laerm;31671;48.092;11.842;2023-09-19T06:01:01;29.30;27.96;31.72;;
45964;Laerm;31671;48.092;11.842;2023-09-19T06:03:27;29.74;28.01;41.74;;
45964;Laerm;31671;48.092;11.842;2023-09-19T06:05:52;29.34;27.89;33.98;;
45964;Laerm;31671;48.092;11.842;2023-09-19T06:08:18;29.46;27.69;31.73;;
45964;Laerm;31671;48.092;11.842;2023-09-19T06:10:44;29.30;27.77;32.54;;
45964;Laerm;31671;48.092;11.842;2023-09-19T06:13:09;29.29;27.94;32.06;;
45964;Laerm;31671;48.092;11.842;2023-09-19T06:15:35;29.87;28.10;34.80;;
45964;Laerm;31671;48.092;11.842;2023-09-19T06:18:01;29.23;27.75;31.33;;
45964;Laerm;31671;48.092;11.842;2023-09-19T06:20:26;29.33;27.81;36.24;;
45964;Laerm;31671;48.092;11.842;2023-09-19T06:22:52;29.61;27.93;36.99;;
45964;Laerm;31671;48.092;11.842;2023-09-19T06:25:19;29.83;28.52;32.17;;
45964;Laerm;31671;48.092;11.842;2023-09-19T06:27:51;30.02;28.28;33.54;;
45964;Laerm;31671;48.092;11.842;2023-09-19T06:30:17;30.35;28.50;38.67;;
45964;Laerm;31671;48.092;11.842;2023-09-19T06:32:43;30.04;28.43;32.86;;
45964;Laerm;31671;48.092;11.842;2023-09-19T06:35:13;30.08;28.37;35.03;;
45964;Laerm;31671;48.092;11.842;2023-09-19T06:37:39;30.67;28.54;44.86;;
45964;Laerm;31671;48.092;11.842;2023-09-19T06:40:08;30.15;28.50;36.40;;
45964;Laerm;31671;48.092;11.842;2023-09-19T06:42:33;30.30;28.45;40.93;;
45964;Laerm;31671;48.092;11.842;2023-09-19T06:44:59;30.12;28.60;44.58;;
45964;Laerm;31671;48.092;11.842;2023-09-19T06:47:25;29.94;28.09;38.35;;
45964;Laerm;31671;48.092;11.842;2023-09-19T06:49:51;33.96;28.30;52.81;;
45964;Laerm;31671;48.092;11.842;2023-09-19T06:52:16;31.30;28.35;58.93;;
45964;Laerm;31671;48.092;11.842;2023-09-19T06:54:42;29.93;28.27;41.07;;
45964;Laerm;31671;48.092;11.842;2023-09-19T06:57:08;30.21;28.57;44.25;;
45964;Laerm;31671;48.092;11.842;2023-09-19T06:59:33;29.70;28.14;34.90;;
45964;Laerm;31671;48.092;11.842;2023-09-19T07:01:59;30.07;28.39;43.73;;
45964;Laerm;31671;48.092;11.842;2023-09-19T07:04:25;29.97;28.23;44.40;;
45964;Laerm;31671;48.092;11.842;2023-09-19T07:06:50;30.02;28.31;43.94;;
45964;Laerm;31671;48.092;11.842;2023-09-19T07:09:16;32.65;28.14;54.56;;
45964;Laerm;31671;48.092;11.842;2023-09-19T07:11:42;29.74;28.36;38.41;;
45964;Laerm;31671;48.092;11.842;2023-09-19T07:14:08;32.07;28.20;49.41;;
45964;Laerm;31671;48.092;11.842;2023-09-19T07:16:34;30.10;28.35;44.72;;
45964;Laerm;31671;48.092;11.842;2023-09-19T07:19:00;30.00;28.28;36.95;;
45964;Laerm;31671;48.092;11.842;2023-09-19T07:21:25;39.09;28.47;63.55;;
45964;Laerm;31671;48.092;11.842;2023-09-19T07:23:51;29.75;28.51;36.68;;
45964;Laerm;31671;48.092;11.842;2023-09-19T07:26:17;30.06;28.14;48.80;;
45964;Laerm;31671;48.092;11.842;2023-09-19T07:28:43;29.86;28.00;34.40;;
45964;Laerm;31671;48.092;11.842;2023-09-19T07:31:08;29.92;28.38;44.39;;
45964;Laerm;31671;48.092;11.842;2023-09-19T07:33:34;42.46;28.54;63.55;;
45964;Laerm;31671;48.092;11.842;2023-09-19T07:36:00;31.61;28.22;55.44;;
45964;Laerm;31671;48.092;11.842;2023-09-19T07:38:25;30.73;28.47;49.14;;
45964;Laerm;31671;48.092;11.842;2023-09-19T07:40:51;34.78;28.52;57.11;;
45964;Laerm;31671;48.092;11.842;2023-09-19T07:43:17;29.79;28.58;31.84;;
45964;Laerm;31671;48.092;11.842;2023-09-19T07:45:42;30.41;28.60;44.97;;
45964;Laerm;31671;48.092;11.842;2023-09-19T07:48:08;30.27;28.35;49.61;;
45964;Laerm;31671;48.092;11.842;2023-09-19T07:50:34;32.62;28.31;53.04;;
45964;Laerm;31671;48.092;11.842;2023-09-19T07:53:00;30.58;28.45;50.82;;
45964;Laerm;31671;48.092;11.842;2023-09-19T07:55:25;29.85;28.29;36.80;;
45964;Laerm;31671;48.092;11.842;2023-09-19T07:57:54;29.97;28.45;38.11;;
45964;Laerm;31671;48.092;11.842;2023-09-19T08:00:20;29.84;28.38;35.40;;
45964;Laerm;31671;48.092;11.842;2023-09-19T08:02:45;29.86;28.27;36.50;;
45964;Laerm;31671;48.092;11.842;2023-09-19T08:05:12;29.74;28.39;33.80;;
45964;Laerm;31671;48.092;11.842;2023-09-19T08:07:38;30.10;28.48;41.10;;
45964;Laerm;31671;48.092;11.842;2023-09-19T08:10:04;30.15;28.57;38.98;;
45964;Laerm;31671;48.092;11.842;2023-09-19T08:12:30;32.94;28.29;62.28;;
45964;Laerm;31671;48.092;11.842;2023-09-19T08:14:56;30.62;28.41;47.46;;
45964;Laerm;31671;48.092;11.842;2023-09-19T08:17:21;29.75;28.52;32.39;;
45964;Laerm;31671;48.092;11.842;2023-09-19T08:19:47;39.50;28.45;60.03;;
45964;Laerm;31671;48.092;11.842;2023-09-19T08:22:13;29.98;28.61;40.31;;
45964;Laerm;31671;48.092;11.842;2023-09-19T08:24:38;29.72;28.41;35.65;;
45964;Laerm;31671;48.092;11.842;2023-09-19T08:27:04;31.71;28.51;50.66;;
45964;Laerm;31671;48.092;11.842;2023-09-19T08:29:30;29.86;28.34;42.63;;
45964;Laerm;31671;48.092;11.842;2023-09-19T08:31:56;29.70;28.43;35.52;;
45964;Laerm;31671;48.092;11.842;2023-09-19T08:34:25;32.94;28.15;55.72;;
45964;Laerm;31671;48.092;11.842;2023-09-19T08:36:54;31.19;28.25;50.60;;
45964;Laerm;31671;48.092;11.842;2023-09-19T08:39:20;30.09;28.31;44.19;;
45964;Laerm;31671;48.092;11.842;2023-09-19T08:41:46;31.44;28.49;51.85;;
45964;Laerm;31671;48.092;11.842;2023-09-19T08:44:12;30.03;28.52;43.56;;
45964;Laerm;31671;48.092;11.842;2023-09-19T08:46:37;29.76;28.47;40.16;;
45964;Laerm;31671;48.092;11.842;2023-09-19T08:49:08;32.61;28.16;58.94;;
45964;Laerm;31671;48.092;11.842;2023-09-19T08:54:08;32.34;28.22;53.98;;
45964;Laerm;31671;48.092;11.842;2023-09-19T08:56:34;29.72;28.23;43.86;;
45964;Laerm;31671;48.092;11.842;2023-09-19T08:59:03;29.64;28.08;35.89;;
45964;Laerm;31671;48.092;11.842;2023-09-19T09:01:29;30.77;28.53;43.89;;
45964;Laerm;31671;48.092;11.842;2023-09-19T09:03:56;30.70;28.19;49.05;;
45964;Laerm;31671;48.092;11.842;2023-09-19T09:06:22;31.33;28.28;49.32;;
45964;Laerm;31671;48.092;11.842;2023-09-19T09:08:50;29.65;28.19;36.32;;
45964;Laerm;31671;48.092;11.842;2023-09-19T09:11:15;29.57;28.03;34.00;;
45964;Laerm;31671;48.092;11.842;2023-09-19T09:13:41;29.68;28.18;38.33;;
45964;Laerm;31671;48.092;11.842;2023-09-19T09:16:07;31.05;28.35;45.00;;
45964;Laerm;31671;48.092;11.842;2023-09-19T09:18:33;30.58;28.32;43.94;;
45964;Laerm;31671;48.092;11.842;2023-09-19T09:20:59;34.55;28.51;55.96;;
45964;Laerm;31671;48.092;11.842;2023-09-19T09:23:25;35.96;28.52;58.11;;
45964;Laerm;31671;48.092;11.842;2023-09-19T09:25:52;35.34;28.52;55.93;;
45964;Laerm;31671;48.092;11.842;2023-09-19T09:28:19;32.21;28.41;56.86;;
45964;Laerm;31671;48.092;11.842;2023-09-19T09:30:45;32.80;28.30;58.67;;
45964;Laerm;31671;48.092;11.842;2023-09-19T09:33:11;33.66;28.11;58.93;;
45964;Laerm;31671;48.092;11.842;2023-09-19T09:35:50;31.21;28.26;49.52;;
45964;Laerm;31671;48.092;11.842;2023-09-19T09:38:15;30.86;28.17;50.72;;
45964;Laerm;31671;48.092;11.842;2023-09-19T09:40:48;35.01;28.29;62.16;;
45964;Laerm;31671;48.092;11.842;2023-09-19T09:43:33;34.91;28.37;56.98;;
45964;Laerm;31671;48.092;11.842;2023-09-19T09:46:06;30.97;28.12;53.15;;
45964;Laerm;31671;48.092;11.842;2023-09-19T09:48:31;39.49;28.20;70.41;;
45964;Laerm;31671;48.092;11.842;2023-09-19T09:50:57;29.58;28.12;35.58;;
45964;Laerm;31671;48.092;11.842;2023-09-19T09:53:23;30.53;28.37;40.21;;
45964;Laerm;31671;48.092;11.842;2023-09-19T09:56:08;30.57;28.28;47.89;;
45964;Laerm;31671;48.092;11.842;2023-09-19T09:58:37;31.20;28.24;51.83;;
45964;Laerm;31671;48.092;11.842;2023-09-19T10:01:04;29.57;27.98;42.92;;
45964;Laerm;31671;48.092;11.842;2023-09-19T10:03:31;30.25;28.10;47.35;;
45964;Laerm;31671;48.092;11.842;2023-09-19T10:05:56;29.74;28.01;40.25;;
45964;Laerm;31671;48.092;11.842;2023-09-19T10:08:22;30.06;27.96;49.55;;
45964;Laerm;31671;48.092;11.842;2023-09-19T10:10:48;30.80;27.81;51.46;;
45964;Laerm;31671;48.092;11.842;2023-09-19T10:13:14;31.10;27.72;54.42;;
45964;Laerm;31671;48.092;11.842;2023-09-19T10:15:39;31.88;27.66;55.73;;
45964;Laerm;31671;48.092;11.842;2023-09-19T10:18:07;29.55;27.57;47.13;;
45964;Laerm;31671;48.092;11.842;2023-09-19T10:20:36;29.23;27.69;35.00;;
45964;Laerm;31671;48.092;11.842;2023-09-19T10:23:05;29.86;28.05;43.58;;
45964;Laerm;31671;48.092;11.842;2023-09-19T10:25:31;33.38;28.07;57.60;;
45964;Laerm;31671;48.092;11.842;2023-09-19T10:27:57;31.43;28.00;58.19;;
45964;Laerm;31671;48.092;11.842;2023-09-19T10:30:25;29.49;27.85;45.80;;
45964;Laerm;31671;48.092;11.842;2023-09-19T10:32:56;29.16;27.58;43.39;;
45964;Laerm;31671;48.092;11.842;2023-09-19T10:35:23;29.16;27.83;41.04;;
45964;Laerm;31671;48.092;11.842;2023-09-19T10:37:48;32.64;27.81;52.84;;
45964;Laerm;31671;48.092;11.842;2023-09-19T10:40:15;30.20;28.19;48.91;;
45964;Laerm;31671;48.092;11.842;2023-09-19T10:42:42;36.07;28.21;62.91;;
45964;Laerm;31671;48.092;11.842;2023-09-19T10:45:08;29.85;28.11;43.82;;
45964;Laerm;31671;48.092;11.842;2023-09-19T10:47:34;30.30;28.05;45.82;;
45964;Laerm;31671;48.092;11.842;2023-09-19T10:50:00;31.00;27.56;50.10;;
45964;Laerm;31671;48.092;11.842;2023-09-19T10:52:26;29.35;27.87;36.98;;
45964;Laerm;31671;48.092;11.842;2023-09-19T10:54:53;30.36;27.66;46.88;;
45964;Laerm;31671;48.092;11.842;2023-09-19T10:57:24;33.94;28.09;65.82;;
45964;Laerm;31671;48.092;11.842;2023-09-19T11:00:08;33.30;28.12;53.25;;
45964;Laerm;31671;48.092;11.842;2023-09-19T11:02:34;29.88;28.03;46.36;;
45964;Laerm;31671;48.092;11.842;2023-09-19T11:05:10;34.15;28.31;63.15;;
45964;Laerm;31671;48.092;11.842;2023-09-19T11:07:56;30.04;28.14;49.42;;
45964;Laerm;31671;48.092;11.842;2023-09-19T11:11:03;30.02;28.16;45.38;;
45964;Laerm;31671;48.092;11.842;2023-09-19T11:26:40;29.30;27.93;38.15;;
45964;Laerm;31671;48.092;11.842;2023-09-19T11:31:50;29.47;27.96;47.79;;
45964;Laerm;31671;48.092;11.842;2023-09-19T11:37:00;29.36;27.89;39.58;;
45964;Laerm;31671;48.092;11.842;2023-09-19T11:39:26;29.36;27.87;44.62;;
45964;Laerm;31671;48.092;11.842;2023-09-19T11:41:51;34.02;27.91;61.22;;
45964;Laerm;31671;48.092;11.842;2023-09-19T11:46:52;29.55;27.81;45.88;;
45964;Laerm;31671;48.092;11.842;2023-09-19T11:49:19;32.13;27.71;57.92;;
45964;Laerm;31671;48.092;11.842;2023-09-19T11:51:51;30.13;27.68;54.35;;
45964;Laerm;31671;48.092;11.842;2023-09-19T11:54:17;30.56;27.74;50.64;;
45964;Laerm;31671;48.092;11.842;2023-09-19T11:56:43;35.52;27.60;58.23;;
45964;Laerm;31671;48.092;11.842;2023-09-19T12:01:34;31.50;27.75;57.13;;
45964;Laerm;31671;48.092;11.842;2023-09-19T12:04:03;35.23;27.87;61.07;;
45964;Laerm;31671;48.092;11.842;2023-09-19T12:06:29;34.13;27.73;63.22;;
45964;Laerm;31671;48.092;11.842;2023-09-19T12:08:55;31.61;27.68;50.87;;
45964;Laerm;31671;48.092;11.842;2023-09-19T12:11:21;34.85;27.72;59.66;;
45964;Laerm;31671;48.092;11.842;2023-09-19T12:13:47;40.96;27.62;62.27;;
45964;Laerm;31671;48.092;11.842;2023-09-19T12:16:14;37.25;27.76;68.90;;
45964;Laerm;31671;48.092;11.842;2023-09-19T12:18:39;39.66;27.91;64.41;;
45964;Laerm;31671;48.092;11.842;2023-09-19T12:21:05;36.49;27.95;60.91;;
45964;Laerm;31671;48.092;11.842;2023-09-19T12:23:31;42.32;28.04;64.62;;
45964;Laerm;31671;48.092;11.842;2023-09-19T12:25:56;29.58;27.76;44.22;;
45964;Laerm;31671;48.092;11.842;2023-09-19T12:28:24;29.89;27.63;46.59;;
45964;Laerm;31671;48.092;11.842;2023-09-19T12:30:52;29.28;27.55;45.04;;
45964;Laerm;31671;48.092;11.842;2023-09-19T12:33:18;34.92;27.79;61.82;;
45964;Laerm;31671;48.092;11.842;2023-09-19T12:35:44;34.70;27.86;56.31;;
45964;Laerm;31671;48.092;11.842;2023-09-19T12:38:10;29.80;27.45;50.72;;
45964;Laerm;31671;48.092;11.842;2023-09-19T12:40:36;29.15;27.83;35.02;;
45964;Laerm;31671;48.092;11.842;2023-09-19T12:43:02;29.95;27.71;51.09;;
45964;Laerm;31671;48.092;11.842;2023-09-19T12:45:27;29.66;27.54;46.61;;
45964;Laerm;31671;48.092;11.842;2023-09-19T12:50:58;30.81;27.86;55.34;;
45964;Laerm;31671;48.092;11.842;2023-09-19T12:53:26;38.58;27.34;63.95;;
45964;Laerm;31671;48.092;11.842;2023-09-19T12:55:57;41.65;27.78;69.98;;
45964;Laerm;31671;48.092;11.842;2023-09-19T12:58:23;34.64;27.88;67.16;;
45964;Laerm;31671;48.092;11.842;2023-09-19T13:00:49;36.48;28.05;59.69;;
45964;Laerm;31671;48.092;11.842;2023-09-19T13:03:16;29.11;27.88;38.13;;
45964;Laerm;31671;48.092;11.842;2023-09-19T13:05:48;30.94;27.79;50.45;;
45964;Laerm;31671;48.092;11.842;2023-09-19T13:08:33;29.57;27.74;46.69;;
45964;Laerm;31671;48.092;11.842;2023-09-19T13:11:03;30.23;27.51;54.22;;
45964;Laerm;31671;48.092;11.842;2023-09-19T13:13:29;32.76;27.78;61.08;;
45964;Laerm;31671;48.092;11.842;2023-09-19T13:15:55;43.41;27.63;64.51;;
45964;Laerm;31671;48.092;11.842;2023-09-19T13:18:21;29.76;27.72;45.74;;
45964;Laerm;31671;48.092;11.842;2023-09-19T13:21:05;29.31;27.76;44.43;;
45964;Laerm;31671;48.092;11.842;2023-09-19T13:23:31;29.19;27.71;41.09;;
45964;Laerm;31671;48.092;11.842;2023-09-19T13:25:56;29.22;27.52;38.52;;
45964;Laerm;31671;48.092;11.842;2023-09-19T13:28:22;30.49;27.56;48.10;;
45964;Laerm;31671;48.092;11.842;2023-09-19T13:30:48;30.35;27.94;44.34;;
45964;Laerm;31671;48.092;11.842;2023-09-19T13:33:14;32.10;27.94;52.94;;
45964;Laerm;31671;48.092;11.842;2023-09-19T13:35:39;35.69;27.98;66.45;;
45964;Laerm;31671;48.092;11.842;2023-09-19T13:38:05;31.77;27.93;49.42;;
45964;Laerm;31671;48.092;11.842;2023-09-19T13:40:31;36.63;27.75;60.05;;
45964;Laerm;31671;48.092;11.842;2023-09-19T13:42:57;38.73;27.77;58.31;;
45964;Laerm;31671;48.092;11.842;2023-09-19T13:45:23;37.74;27.83;67.95;;
45964;Laerm;31671;48.092;11.842;2023-09-19T13:47:48;35.79;28.01;68.48;;
45964;Laerm;31671;48.092;11.842;2023-09-19T13:50:14;34.05;28.05;63.34;;
45964;Laerm;31671;48.092;11.842;2023-09-19T13:52:40;32.18;28.05;56.83;;
45964;Laerm;31671;48.092;11.842;2023-09-19T13:55:06;30.93;27.86;46.47;;
45964;Laerm;31671;48.092;11.842;2023-09-19T13:57:31;30.80;27.86;52.30;;
45964;Laerm;31671;48.092;11.842;2023-09-19T13:59:57;34.38;27.99;53.89;;
45964;Laerm;31671;48.092;11.842;2023-09-19T14:02:23;32.04;27.95;49.74;;
45964;Laerm;31671;48.092;11.842;2023-09-19T14:04:49;30.97;27.87;51.68;;